Weather reports worldwide

Advertisment
Teruel, Spain (8235): temperature & dewpoint: 17.07.2019 22:00:00 - 23.07.2019 22:00:00 (CEST)Teruel, Spain (8235): wind speed: 17.07.2019 22:00:00 - 23.07.2019 22:00:00 (CEST)Teruel, Spain (8235): wind direction: 17.07.2019 22:00:00 - 23.07.2019 22:00:00 (CEST)Teruel, Spain (8235): visibility: 17.07.2019 22:00:00 - 23.07.2019 22:00:00 (CEST)Teruel, Spain (8235): precipitation: 17.07.2019 22:00:00 - 23.07.2019 22:00:00 (CEST)
Date & Time tt [°C] td [°C] ff [km/h] ff [kn] dd vv [km] rr [mm]
23.07.2019 22:00:00 27,2 8,6 8 4 SSE 20 0,0
23.07.2019 21:00:00 29,2 8,3 9 5 ESE 20 0,0
23.07.2019 20:00:00 31,9 8,2 11 6 ESE 20 -
23.07.2019 19:00:00 35,0 6,3 16 9 S 20 0,0
23.07.2019 18:00:00 35,9 7,0 16 9 S 19 0,0
23.07.2019 17:00:00 35,8 8,6 11 6 ESE 20 -
23.07.2019 16:00:00 36,3 7,4 13 7 E 20 0,0
23.07.2019 15:00:00 36,2 8,1 11 6 E 20 0,0
23.07.2019 14:00:00 35,9 8,7 8 4 S 20 -
23.07.2019 13:00:00 34,3 7,4 5 3 SSW 20 0,0
23.07.2019 12:00:00 32,2 7,8 4 2 SE 20 0,0
23.07.2019 11:00:00 28,4 11,0 4 2 ESE 20 -
23.07.2019 10:00:00 24,0 9,6 4 2 E 20 0,0
23.07.2019 09:00:00 18,6 9,4 0 0 N 20 0,0
23.07.2019 08:00:00 13,8 8,2 0 0 N 20 -
23.07.2019 07:00:00 13,5 7,5 2 1 NNW 20 0,0
23.07.2019 06:00:00 14,1 7,4 2 1 N 20 0,0
23.07.2019 05:00:00 15,0 8,2 2 1 WNW 20 -
23.07.2019 04:00:00 16,3 8,0 0 0 N 20 0,0
23.07.2019 03:00:00 17,8 8,1 0 0 N 20 0,0
23.07.2019 02:00:00 20,3 7,0 5 3 ESE 20 -
23.07.2019 01:00:00 20,8 7,1 4 2 E 20 0,0
23.07.2019 00:00:00 22,7 6,4 4 2 S 20 0,0
22.07.2019 23:00:00 24,2 7,3 4 2 S 20 -
22.07.2019 22:00:00 25,7 8,2 8 4 S 20 0,0
22.07.2019 21:00:00 27,8 7,6 5 3 ESE 20 0,0
22.07.2019 20:00:00 30,7 9,0 8 4 ESE 20 -
22.07.2019 19:00:00 31,9 11,1 9 5 ESE 20 0,0
22.07.2019 18:00:00 33,4 7,4 11 6 E 20 0,0
22.07.2019 17:00:00 35,1 8,8 9 5 E 20 -
22.07.2019 16:00:00 35,2 8,9 9 5 ESE 20 0,0
22.07.2019 15:00:00 34,7 7,7 11 6 ESE 20 0,0
22.07.2019 14:00:00 34,1 5,6 9 5 E 20 -
22.07.2019 13:00:00 32,9 8,4 8 4 S 20 0,0
22.07.2019 12:00:00 30,2 4,7 5 3 S 20 0,0
22.07.2019 11:00:00 26,8 10,5 2 1 SSE 20 -
22.07.2019 10:00:00 22,3 9,8 4 2 SW 20 0,0
22.07.2019 09:00:00 18,8 9,6 4 2 WSW 20 0,0
22.07.2019 08:00:00 15,6 10,8 2 1 NW 20 -
22.07.2019 07:00:00 14,8 11,2 4 2 WNW 20 0,0
22.07.2019 06:00:00 15,8 10,5 4 2 WNW 20 0,0
22.07.2019 05:00:00 16,2 11,6 2 1 N 20 -
22.07.2019 04:00:00 18,0 12,0 2 1 E 20 0,0
22.07.2019 03:00:00 19,4 11,7 4 2 W 20 0,0
22.07.2019 02:00:00 21,0 11,1 4 2 E 20 -
22.07.2019 01:00:00 22,3 10,8 4 2 SE 20 0,0
22.07.2019 00:00:00 22,9 11,0 4 2 E 20 0,0
21.07.2019 23:00:00 24,3 11,3 5 3 SE 20 -
21.07.2019 22:00:00 25,5 11,6 8 4 SE 20 0,0
21.07.2019 21:00:00 27,6 10,8 8 4 SE 20 0,0
21.07.2019 20:00:00 29,9 9,4 9 5 ESE 20 -
21.07.2019 19:00:00 31,7 9,8 9 5 ESE 20 0,0
21.07.2019 18:00:00 32,7 11,3 11 6 ESE 20 0,0
21.07.2019 17:00:00 33,5 13,5 11 6 ESE 20 -
21.07.2019 16:00:00 34,2 12,0 11 6 E 20 0,0
21.07.2019 15:00:00 33,7 10,9 11 6 ESE 20 0,0
21.07.2019 14:00:00 33,1 13,2 11 6 E 20 -
21.07.2019 13:00:00 32,3 12,5 8 4 E 20 0,0
21.07.2019 12:00:00 31,0 12,4 5 3 SSE 20 0,0
21.07.2019 11:00:00 28,2 11,3 8 4 S 20 -
21.07.2019 10:00:00 24,1 12,4 4 2 E 20 0,0
21.07.2019 09:00:00 19,3 13,0 2 1 WSW 20 0,0
21.07.2019 08:00:00 16,8 12,1 4 2 ENE 20 -
21.07.2019 07:00:00 16,4 11,8 2 1 N 6 0,0
21.07.2019 06:00:00 17,2 12,1 2 1 NE 17 0,0
21.07.2019 05:00:00 18,3 12,1 2 1 ESE 20 -
21.07.2019 04:00:00 19,8 12,3 4 2 W 20 0,0
21.07.2019 03:00:00 20,8 12,7 4 2 SSE 20 0,0
21.07.2019 02:00:00 21,4 13,8 5 3 S 20 -
21.07.2019 01:00:00 22,1 14,5 8 4 S 20 0,0
21.07.2019 00:00:00 22,8 14,6 8 4 SSE 20 0,0
20.07.2019 23:00:00 23,5 15,5 5 3 SSE 20 -
20.07.2019 22:00:00 24,9 15,2 8 4 SE 20 0,0
20.07.2019 21:00:00 27,2 14,2 5 3 ESE 20 0,0
20.07.2019 20:00:00 30,5 13,7 9 5 SE 20 -
20.07.2019 19:00:00 32,9 13,5 11 6 E 20 0,0
20.07.2019 18:00:00 34,0 12,9 11 6 E 20 0,0
20.07.2019 17:00:00 35,6 12,5 9 5 ESE 20 -
20.07.2019 16:00:00 36,8 9,4 8 4 SSE 20 0,0
20.07.2019 15:00:00 35,5 8,3 11 6 S 20 0,0
20.07.2019 14:00:00 34,7 6,9 15 8 S 18 -
20.07.2019 13:00:00 33,1 6,4 13 7 SSW 20 0,0
20.07.2019 12:00:00 30,4 8,2 16 9 SSW 20 0,0
20.07.2019 11:00:00 27,6 10,8 8 4 SSE 20 -
20.07.2019 10:00:00 24,4 10,7 4 2 SSE 20 0,0
20.07.2019 09:00:00 20,9 11,5 2 1 E 20 0,0
20.07.2019 08:00:00 16,6 11,1 0 0 N 20 -
20.07.2019 07:00:00 16,1 11,7 4 2 ESE 20 0,0
20.07.2019 06:00:00 16,5 11,8 4 2 ESE 20 0,0
20.07.2019 05:00:00 17,5 12,4 4 2 ESE 20 -
20.07.2019 04:00:00 17,8 12,7 4 2 ESE 20 0,0
20.07.2019 03:00:00 18,7 12,7 2 1 SE 20 0,0
20.07.2019 02:00:00 19,5 12,7 2 1 SE 20 -
20.07.2019 01:00:00 20,5 12,7 4 2 SSE 20 0,0
20.07.2019 00:00:00 21,6 12,7 5 3 SSE 20 0,0
19.07.2019 23:00:00 22,7 12,9 5 3 ESE 20 -
19.07.2019 22:00:00 24,4 12,7 8 4 SSE 20 0,0
19.07.2019 21:00:00 26,9 12,2 5 3 ESE 20 0,0
19.07.2019 20:00:00 30,2 12,1 9 5 SE 20 -
19.07.2019 19:00:00 32,8 12,4 9 5 SSE 19 0,0
19.07.2019 18:00:00 34,8 13,6 9 5 SSE 20 0,0
19.07.2019 17:00:00 34,0 8,6 15 8 S 20 -
19.07.2019 16:00:00 34,8 7,8 13 7 S 20 0,0
19.07.2019 15:00:00 34,2 10,7 11 6 S 20 0,0
19.07.2019 14:00:00 33,1 11,0 13 7 S 20 -
19.07.2019 13:00:00 31,7 11,5 15 8 S 20 0,0
19.07.2019 12:00:00 29,3 14,3 5 3 S 20 0,0
19.07.2019 11:00:00 26,4 15,1 5 3 S 19 -
19.07.2019 10:00:00 22,8 13,6 4 2 E 20 0,0
19.07.2019 09:00:00 19,2 13,8 2 1 S 20 0,0
19.07.2019 08:00:00 15,7 12,8 4 2 W 20 -
19.07.2019 07:00:00 15,7 12,4 2 1 W 20 0,0
19.07.2019 06:00:00 16,0 12,4 4 2 N 20 0,0
19.07.2019 05:00:00 17,1 13,4 2 1 W 20 -
19.07.2019 04:00:00 17,8 13,5 2 1 NNE 20 0,0
19.07.2019 03:00:00 18,5 14,8 4 2 W 4,6 0,0
19.07.2019 02:00:00 19,8 15,2 2 1 WSW 20 -
19.07.2019 01:00:00 21,2 15,5 2 1 SSE 20 0,0
19.07.2019 00:00:00 22,1 15,4 2 1 ENE 20 0,0
18.07.2019 23:00:00 23,0 15,8 4 2 SSE 20 -
18.07.2019 22:00:00 24,1 15,8 5 3 SSE 20 0,0
18.07.2019 21:00:00 25,5 16,4 8 4 E 20 0,0
18.07.2019 20:00:00 27,5 16,1 9 5 E 20 -
18.07.2019 19:00:00 29,5 16,0 8 4 E 20 0,0
18.07.2019 18:00:00 31,9 13,2 4 2 SE 20 0,0
18.07.2019 17:00:00 31,5 11,8 8 4 NE 20 -
18.07.2019 16:00:00 32,1 12,3 5 3 N 20 0,0
18.07.2019 15:00:00 32,1 11,3 5 3 SW 20 0,0
18.07.2019 14:00:00 29,6 10,7 8 4 NNW 20 -
18.07.2019 13:00:00 27,5 13,1 5 3 S 20 0,0
18.07.2019 12:00:00 23,9 15,1 8 4 WSW 20 0,0
18.07.2019 11:00:00 20,9 14,8 8 4 W 20 -
18.07.2019 10:00:00 18,7 14,8 9 5 WSW 19 0,0
18.07.2019 09:00:00 15,9 14,3 8 4 WSW 13 0,0
18.07.2019 08:00:00 14,8 13,7 8 4 WSW 8 -
18.07.2019 07:00:00 14,8 13,2 4 2 WNW 12 0,0
18.07.2019 06:00:00 15,4 13,1 2 1 NNW 13 0,0
18.07.2019 05:00:00 16,0 14,0 2 1 NE 14 -
18.07.2019 04:00:00 16,6 13,9 2 1 SW 19 0,0
18.07.2019 03:00:00 17,3 13,8 4 2 W 20 0,0
18.07.2019 02:00:00 18,3 13,4 4 2 NNE 20 -
18.07.2019 01:00:00 19,6 13,5 4 2 SW 20 0,0
18.07.2019 00:00:00 20,5 13,5 2 1 SSW 20 0,0
17.07.2019 23:00:00 21,6 13,2 4 2 WNW 20 -
17.07.2019 22:00:00 22,9 13,4 4 2 E 20 0,0

tt = temperature
td = dewpoint
ff = wind speed
dd = wind direction
vv = visibility
rr = precipitation

Next stations